Time;durP1;ratioP1;P1;durP2;ratioP2;P2;SDS_P1;SDS_P2;PMS_P1;PMS_P2;Temp;Humidity;BMP_temperature;BMP_pressure;BME280_temperature;BME280_humidity;BME280_pressure;Samples;Min_cycle;Max_cycle;Signal;HPM_P1;HPM_P2
2022/12/01 04:02:24;;;;;;;;;;;6.10;99.90;;;;;;5220383;23;19938;-68
2022/12/01 04:04:50;;;;;;;;;;;6.10;99.90;;;;;;4896540;29;19935;-68
2022/12/01 04:07:17;;;;;;;;;;;6.10;99.90;;;;;;4896830;29;19931;-68
2022/12/01 04:09:44;;;;;;;;;;;6.10;99.90;;;;;;4897188;29;19927;-68
2022/12/01 04:12:28;;;;;;;;;;;6.10;99.90;;;;;;4887029;29;20407;-69
2022/12/01 04:14:55;;;;;;;;;;;6.10;99.90;;;;;;4894180;29;19930;-67
2022/12/01 04:17:23;;;;;;;;;;;6.10;99.90;;;;;;4886370;29;20363;-68
2022/12/01 04:19:49;;;;;;;;;;;6.10;99.90;;;;;;4885473;29;20434;-68
2022/12/01 04:22:16;;;;;;;;;;;6.10;99.90;;;;;;4878705;29;19931;-68
2022/12/01 04:24:43;;;;;;;;;;;6.10;99.90;;;;;;4883679;29;20417;-68
2022/12/01 04:27:10;;;;;;;;;;;6.10;99.90;;;;;;4871441;29;19928;-68
2022/12/01 04:29:37;;;;;;;;;;;6.10;99.90;;;;;;4872168;29;19935;-69
2022/12/01 04:32:04;;;;;;;;;;;6.10;99.90;;;;;;4891603;29;19988;-69
2022/12/01 04:34:32;;;;;;;;;;;6.10;99.90;;;;;;4885209;29;19932;-68
2022/12/01 04:36:59;;;;;;;;;;;6.10;99.90;;;;;;4895538;29;20433;-68
2022/12/01 04:39:25;;;;;;;;;;;6.00;99.90;;;;;;4884010;29;19928;-69
2022/12/01 04:41:52;;;;;;;;;;;6.00;99.90;;;;;;4883602;29;19988;-68
2022/12/01 04:44:19;;;;;;;;;;;6.00;99.90;;;;;;4880737;29;19935;-68
2022/12/01 04:46:46;;;;;;;;;;;6.10;99.90;;;;;;4889596;29;19934;-68
2022/12/01 04:49:12;;;;;;;;;;;6.10;99.90;;;;;;4889178;29;20300;-68
2022/12/01 04:51:41;;;;;;;;;;;6.10;99.90;;;;;;4889472;29;19931;-67
2022/12/01 04:54:07;;;;;;;;;;;6.00;99.90;;;;;;4896056;29;19927;-68
2022/12/01 04:56:34;;;;;;;;;;;6.00;99.90;;;;;;4885977;29;19932;-69
2022/12/01 04:59:01;;;;;;;;;;;6.00;99.90;;;;;;4883865;29;19932;-68
2022/12/01 05:01:28;;;;;;;;;;;6.00;99.90;;;;;;4888740;29;19935;-68
2022/12/01 05:03:55;;;;;;;;;;;6.00;99.90;;;;;;4893644;29;19998;-68
2022/12/01 05:06:22;;;;;;;;;;;6.00;99.90;;;;;;4886034;29;19927;-69
2022/12/01 05:08:51;;;;;;;;;;;6.00;99.90;;;;;;4885173;29;19932;-66
2022/12/01 05:11:18;;;;;;;;;;;6.00;99.90;;;;;;4887456;29;20368;-68
2022/12/01 05:13:47;;;;;;;;;;;6.00;99.90;;;;;;4889087;29;19931;-76
2022/12/01 05:16:14;;;;;;;;;;;6.00;99.90;;;;;;4888934;29;19935;-68
2022/12/01 05:18:41;;;;;;;;;;;6.00;99.90;;;;;;4891388;29;19932;-68
2022/12/01 05:21:08;;;;;;;;;;;6.00;99.90;;;;;;4871122;29;19928;-68
2022/12/01 05:23:35;;;;;;;;;;;6.00;99.90;;;;;;4891696;29;20010;-68
2022/12/01 05:26:04;;;;;;;;;;;6.00;99.90;;;;;;4885139;29;19931;-68
2022/12/01 05:28:31;;;;;;;;;;;6.00;99.90;;;;;;4890308;29;19928;-68
2022/12/01 05:30:58;;;;;;;;;;;6.00;99.90;;;;;;4881128;29;19927;-69
2022/12/01 05:33:25;;;;;;;;;;;6.00;99.90;;;;;;4882637;29;20343;-68
2022/12/01 05:35:53;;;;;;;;;;;6.00;99.90;;;;;;4877244;29;19931;-73
2022/12/01 05:38:20;;;;;;;;;;;6.00;99.90;;;;;;4884636;29;19988;-69
2022/12/01 05:40:49;;;;;;;;;;;6.00;99.90;;;;;;4882451;29;19927;-70
2022/12/01 05:43:17;;;;;;;;;;;6.00;99.90;;;;;;4896495;29;19928;-69
2022/12/01 05:45:44;;;;;;;;;;;5.90;99.90;;;;;;4883625;29;19928;-68
2022/12/01 05:48:11;;;;;;;;;;;5.90;99.90;;;;;;4892042;29;20298;-68
2022/12/01 05:50:38;;;;;;;;;;;6.00;99.90;;;;;;4886610;29;19996;-68
2022/12/01 05:53:06;;;;;;;;;;;6.00;99.90;;;;;;4876196;29;19928;-70
2022/12/01 05:55:33;;;;;;;;;;;6.00;99.90;;;;;;4869964;29;20381;-68
2022/12/01 05:58:00;;;;;;;;;;;6.00;99.90;;;;;;4875424;29;19987;-69
2022/12/01 06:00:28;;;;;;;;;;;6.00;99.90;;;;;;4882886;29;19931;-72
2022/12/01 06:02:55;;;;;;;;;;;6.00;99.90;;;;;;4867027;29;19928;-67
2022/12/01 06:05:22;;;;;;;;;;;6.00;99.90;;;;;;4875947;29;19935;-67
2022/12/01 06:07:49;;;;;;;;;;;6.00;99.90;;;;;;4877945;29;19928;-76
2022/12/01 06:10:16;;;;;;;;;;;5.90;99.90;;;;;;4879150;29;20414;-73
2022/12/01 06:12:42;;;;;;;;;;;6.00;99.90;;;;;;4875665;29;20372;-70
2022/12/01 06:15:11;;;;;;;;;;;6.00;99.90;;;;;;4883932;29;19934;-71
2022/12/01 06:17:39;;;;;;;;;;;6.00;99.90;;;;;;4881312;29;19931;-70
2022/12/01 06:20:06;;;;;;;;;;;5.90;99.90;;;;;;4873193;29;19983;-75
2022/12/01 06:22:33;;;;;;;;;;;5.90;99.90;;;;;;4868617;29;19935;-73
2022/12/01 06:25:00;;;;;;;;;;;5.90;99.90;;;;;;4874932;29;19929;-70
2022/12/01 06:27:27;;;;;;;;;;;5.90;99.90;;;;;;4882549;29;19934;-71
2022/12/01 06:29:53;;;;;;;;;;;5.90;99.90;;;;;;4878226;29;19931;-70
2022/12/01 06:32:20;;;;;;;;;;;5.90;99.90;;;;;;4876895;29;19928;-71
2022/12/01 06:34:49;;;;;;;;;;;5.90;99.90;;;;;;4879009;29;19936;-70
2022/12/01 06:37:15;;;;;;;;;;;5.90;99.90;;;;;;4884828;29;20319;-75
2022/12/01 06:39:42;;;;;;;;;;;5.90;99.90;;;;;;4885019;29;19931;-70
2022/12/01 06:42:09;;;;;;;;;;;5.90;99.90;;;;;;4885157;29;19929;-70
2022/12/01 06:44:36;;;;;;;;;;;6.00;99.90;;;;;;4880516;29;20076;-71
2022/12/01 06:47:02;;;;;;;;;;;6.00;99.90;;;;;;4887789;29;19927;-71
2022/12/01 06:49:29;;;;;;;;;;;6.00;99.90;;;;;;4879621;29;19927;-71
2022/12/01 06:51:57;;;;;;;;;;;5.90;99.90;;;;;;4884735;29;19928;-71
2022/12/01 06:54:24;;;;;;;;;;;5.90;99.90;;;;;;4883665;29;20041;-71
2022/12/01 06:56:51;;;;;;;;;;;5.90;99.90;;;;;;4884255;29;20336;-70
2022/12/01 06:59:18;;;;;;;;;;;5.90;99.90;;;;;;4880582;29;19931;-70
2022/12/01 07:01:45;;;;;;;;;;;5.90;99.90;;;;;;4883519;29;19928;-70
2022/12/01 07:04:12;;;;;;;;;;;5.90;99.90;;;;;;4882991;29;19928;-70
2022/12/01 07:06:39;;;;;;;;;;;5.90;99.90;;;;;;4879598;29;19928;-71
2022/12/01 07:09:07;;;;;;;;;;;5.90;99.90;;;;;;4891061;29;19927;-70
2022/12/01 07:11:35;;;;;;;;;;;5.90;99.90;;;;;;4883150;29;19952;-69
2022/12/01 07:14:02;;;;;;;;;;;5.90;99.90;;;;;;4884175;29;19931;-70
2022/12/01 07:16:29;;;;;;;;;;;5.90;99.90;;;;;;4882316;29;19963;-71
2022/12/01 07:18:55;;;;;;;;;;;5.90;99.90;;;;;;4874440;29;19932;-70
2022/12/01 07:21:23;;;;;;;;;;;5.90;99.90;;;;;;4893983;29;19931;-70
2022/12/01 07:23:50;;;;;;;;;;;5.90;99.90;;;;;;4893195;29;19928;-70
2022/12/01 07:26:18;;;;;;;;;;;5.90;99.90;;;;;;4892825;29;19927;-70
2022/12/01 07:28:45;;;;;;;;;;;5.90;99.90;;;;;;4881391;29;19931;-70
2022/12/01 07:31:13;;;;;;;;;;;5.90;99.90;;;;;;4883616;29;19944;-70
2022/12/01 07:33:40;;;;;;;;;;;5.90;99.90;;;;;;4888311;29;19928;-70
2022/12/01 07:36:08;;;;;;;;;;;5.90;99.90;;;;;;4889709;29;20286;-70
2022/12/01 07:38:34;;;;;;;;;;;5.90;99.90;;;;;;4894159;29;19932;-70
2022/12/01 07:41:02;;;;;;;;;;;5.90;99.90;;;;;;4881642;29;19928;-70
2022/12/01 07:43:31;;;;;;;;;;;5.90;99.90;;;;;;4882467;29;19992;-70
2022/12/01 07:46:03;;;;;;;;;;;5.90;99.90;;;;;;4883446;29;20458;-71
2022/12/01 07:48:30;;;;;;;;;;;5.90;99.90;;;;;;4886764;29;19928;-70
2022/12/01 07:50:57;;;;;;;;;;;6.00;99.90;;;;;;4888621;29;19932;-70
2022/12/01 07:53:23;;;;;;;;;;;6.00;99.90;;;;;;4889184;29;19928;-71
2022/12/01 07:55:50;;;;;;;;;;;5.90;99.90;;;;;;4884965;29;19963;-69
2022/12/01 07:58:17;;;;;;;;;;;5.90;99.90;;;;;;4881135;29;19927;-70
2022/12/01 08:00:45;;;;;;;;;;;5.90;99.90;;;;;;4881384;29;19931;-71
2022/12/01 08:03:13;;;;;;;;;;;5.90;99.90;;;;;;4885452;29;19938;-71
2022/12/01 08:05:40;;;;;;;;;;;6.00;99.90;;;;;;4887656;29;19928;-71
2022/12/01 08:08:06;;;;;;;;;;;6.00;99.90;;;;;;4885897;29;20331;-70
2022/12/01 08:10:33;;;;;;;;;;;6.00;99.90;;;;;;4886221;29;19956;-70
2022/12/01 08:13:00;;;;;;;;;;;6.00;99.90;;;;;;4887656;29;19935;-71
2022/12/01 08:15:27;;;;;;;;;;;6.00;99.90;;;;;;4886672;29;19928;-71
2022/12/01 08:17:55;;;;;;;;;;;6.00;99.90;;;;;;4884670;29;19931;-71
2022/12/01 08:20:22;;;;;;;;;;;6.00;99.90;;;;;;4887077;29;19931;-71
2022/12/01 08:22:49;;;;;;;;;;;6.00;99.90;;;;;;4885439;29;19928;-71
2022/12/01 08:25:15;;;;;;;;;;;6.00;99.90;;;;;;4890205;29;19928;-71
2022/12/01 08:27:42;;;;;;;;;;;6.00;99.90;;;;;;4884459;29;19931;-71
2022/12/01 08:30:09;;;;;;;;;;;6.00;99.90;;;;;;4883189;29;19928;-71
2022/12/01 08:32:36;;;;;;;;;;;6.00;99.90;;;;;;4882796;29;20426;-71
2022/12/01 08:35:05;;;;;;;;;;;6.00;99.90;;;;;;4890079;29;19928;-70
2022/12/01 08:37:32;;;;;;;;;;;6.00;99.90;;;;;;4884139;29;19931;-70
2022/12/01 08:39:59;;;;;;;;;;;6.10;99.90;;;;;;4886206;29;19932;-70
2022/12/01 08:42:25;;;;;;;;;;;6.10;99.90;;;;;;4886172;29;20399;-71
2022/12/01 08:44:52;;;;;;;;;;;6.10;99.90;;;;;;4891546;29;19935;-71
2022/12/01 08:47:19;;;;;;;;;;;6.10;99.90;;;;;;4888494;29;19931;-71
2022/12/01 08:49:46;;;;;;;;;;;6.10;99.90;;;;;;4880757;29;19931;-71
2022/12/01 08:52:14;;;;;;;;;;;6.10;99.90;;;;;;4889904;29;20375;-70
2022/12/01 08:54:40;;;;;;;;;;;6.10;99.90;;;;;;4888030;29;19950;-70
2022/12/01 08:57:07;;;;;;;;;;;6.20;99.90;;;;;;4885936;29;20348;-70
2022/12/01 08:59:34;;;;;;;;;;;6.10;99.90;;;;;;4880216;29;19932;-70
2022/12/01 09:02:01;;;;;;;;;;;6.10;99.90;;;;;;4879678;29;19928;-70
2022/12/01 09:04:28;;;;;;;;;;;6.10;99.90;;;;;;4890687;29;19935;-71
2022/12/01 09:06:56;;;;;;;;;;;6.10;99.90;;;;;;4879881;29;19927;-71
2022/12/01 09:09:25;;;;;;;;;;;6.10;99.90;;;;;;4890170;29;19931;-71
2022/12/01 09:11:52;;;;;;;;;;;6.10;99.90;;;;;;4879491;29;19928;-69
2022/12/01 09:14:20;;;;;;;;;;;6.10;99.90;;;;;;4886220;29;19928;-70
2022/12/01 09:16:48;;;;;;;;;;;6.20;99.90;;;;;;4880339;29;19934;-71
2022/12/01 09:19:15;;;;;;;;;;;6.20;99.90;;;;;;4884481;29;20387;-70
2022/12/01 09:21:44;;;;;;;;;;;6.20;99.90;;;;;;4888925;29;19937;-68
2022/12/01 09:24:11;;;;;;;;;;;6.30;99.90;;;;;;4879815;29;19967;-68
2022/12/01 09:26:40;;;;;;;;;;;6.30;99.90;;;;;;4890794;29;19954;-70
2022/12/01 09:29:07;;;;;;;;;;;6.30;99.90;;;;;;4878479;29;19935;-70
2022/12/01 09:31:34;;;;;;;;;;;6.40;99.90;;;;;;4880840;29;19932;-69
2022/12/01 09:34:02;;;;;;;;;;;6.40;99.90;;;;;;4883929;29;20352;-70
2022/12/01 09:36:29;;;;;;;;;;;6.30;99.90;;;;;;4887384;29;19935;-70
2022/12/01 09:38:56;;;;;;;;;;;6.30;99.90;;;;;;4882649;29;19934;-71
2022/12/01 09:41:24;;;;;;;;;;;6.40;99.90;;;;;;4880129;29;19931;-70
2022/12/01 09:43:56;;;;;;;;;;;6.40;99.90;;;;;;4881021;29;19928;-71
2022/12/01 09:46:25;;;;;;;;;;;6.40;99.90;;;;;;4887021;29;19932;-70
2022/12/01 09:48:53;;;;;;;;;;;6.40;99.90;;;;;;4877886;29;19943;-71
2022/12/01 09:51:21;;;;;;;;;;;6.40;99.90;;;;;;4887480;29;19927;-70
2022/12/01 09:53:49;;;;;;;;;;;6.40;99.90;;;;;;4890472;29;19931;-70
2022/12/01 09:56:19;;;;;;;;;;;6.40;99.90;;;;;;4875698;29;19932;-69
2022/12/01 09:58:46;;;;;;;;;;;6.40;99.90;;;;;;4899784;29;19928;-70
2022/12/01 10:01:17;;;;;;;;;;;6.40;99.90;;;;;;4886046;29;19999;-69
2022/12/01 10:03:47;;;;;;;;;;;6.40;99.90;;;;;;4889813;29;19928;-69
2022/12/01 10:06:18;;;;;;;;;;;6.40;99.90;;;;;;4886314;29;19982;-70
2022/12/01 10:08:50;;;;;;;;;;;6.40;99.90;;;;;;4892414;29;20307;-70
2022/12/01 10:11:24;;;;;;;;;;;6.30;99.90;;;;;;4881825;29;19932;-70
2022/12/01 10:13:51;;;;;;;;;;;6.30;99.90;;;;;;4878760;29;19935;-70
2022/12/01 10:16:25;;;;;;;;;;;6.30;99.90;;;;;;4882755;29;19927;-70
2022/12/01 10:18:56;;;;;;;;;;;6.30;99.90;;;;;;4877802;29;19927;-70
2022/12/01 10:21:31;;;;;;;;;;;6.30;99.90;;;;;;4869934;29;19995;-70
2022/12/01 10:24:05;;;;;;;;;;;6.30;99.90;;;;;;4877544;29;19931;-71
2022/12/01 10:26:34;;;;;;;;;;;6.30;99.90;;;;;;4885698;29;19927;-70
2022/12/01 10:29:21;;;;;;;;;;;6.30;99.90;;;;;;4881095;29;19928;-69
2022/12/01 10:31:53;;;;;;;;;;;6.30;99.90;;;;;;4874412;29;19927;-70
2022/12/01 10:34:21;;;;;;;;;;;6.30;99.90;;;;;;4886930;29;20396;-70
2022/12/01 10:36:48;;;;;;;;;;;6.30;99.90;;;;;;4882543;29;19928;-70
2022/12/01 10:39:17;;;;;;;;;;;6.40;99.90;;;;;;4878187;29;20026;-70
2022/12/01 10:41:44;;;;;;;;;;;6.40;99.90;;;;;;4884055;29;19935;-70
2022/12/01 10:44:11;;;;;;;;;;;6.40;99.90;;;;;;4887558;29;19928;-70
2022/12/01 10:46:40;;;;;;;;;;;6.40;99.90;;;;;;4883531;29;20244;-70
2022/12/01 10:49:10;;;;;;;;;;;6.30;99.90;;;;;;4874199;29;19928;-70
2022/12/01 10:51:46;;;;;;;;;;;6.30;99.90;;;;;;4880123;29;20038;-70
2022/12/01 10:54:13;;;;;;;;;;;6.40;99.90;;;;;;4877020;29;19932;-70
2022/12/01 10:56:40;;;;;;;;;;;6.40;99.90;;;;;;4888941;29;19931;-70
2022/12/01 10:59:16;;;;;;;;;;;6.40;99.90;;;;;;4887260;29;19928;-70
2022/12/01 11:01:47;;;;;;;;;;;6.50;99.90;;;;;;4894363;29;19932;-70
2022/12/01 11:04:25;;;;;;;;;;;6.50;99.90;;;;;;4882526;29;20005;-70
2022/12/01 11:06:51;;;;;;;;;;;6.50;99.90;;;;;;4906130;29;19931;-70
2022/12/01 11:09:20;;;;;;;;;;;6.50;99.90;;;;;;4894717;29;19927;-70
2022/12/01 11:11:53;;;;;;;;;;;6.50;99.90;;;;;;4887159;29;20022;-70
2022/12/01 11:14:22;;;;;;;;;;;6.50;99.90;;;;;;4891833;29;19927;-70
2022/12/01 11:16:50;;;;;;;;;;;6.50;99.90;;;;;;4886564;29;19927;-70
2022/12/01 11:19:19;;;;;;;;;;;6.50;99.90;;;;;;4891876;29;19933;-69
2022/12/01 11:21:49;;;;;;;;;;;6.50;99.90;;;;;;4885848;29;19927;-69
2022/12/01 11:24:29;;;;;;;;;;;6.50;99.90;;;;;;4887184;29;19985;-70
2022/12/01 11:26:56;;;;;;;;;;;6.50;99.90;;;;;;4876082;29;19932;-70
2022/12/01 11:29:27;;;;;;;;;;;6.50;99.90;;;;;;4882489;29;19931;-70
2022/12/01 11:31:54;;;;;;;;;;;6.50;99.90;;;;;;4875268;29;20372;-70
2022/12/01 11:34:22;;;;;;;;;;;6.50;99.90;;;;;;4881959;29;19928;-70
2022/12/01 11:36:51;;;;;;;;;;;6.50;99.90;;;;;;4894612;29;19932;-71
2022/12/01 11:39:22;;;;;;;;;;;6.50;99.90;;;;;;4884388;29;19928;-70
2022/12/01 11:41:54;;;;;;;;;;;6.50;99.90;;;;;;4888480;29;19995;-70
2022/12/01 11:44:21;;;;;;;;;;;6.50;99.90;;;;;;4886543;29;19957;-70
2022/12/01 11:46:48;;;;;;;;;;;6.50;99.90;;;;;;4885714;29;19936;-69
2022/12/01 11:49:16;;;;;;;;;;;6.40;99.90;;;;;;4881191;29;19931;-70
2022/12/01 11:51:43;;;;;;;;;;;6.40;99.90;;;;;;4882827;29;20288;-69
2022/12/01 11:54:16;;;;;;;;;;;6.40;99.90;;;;;;4891902;29;19928;-70
2022/12/01 11:56:43;;;;;;;;;;;6.40;99.90;;;;;;4887600;29;19932;-70
2022/12/01 11:59:14;;;;;;;;;;;6.50;99.90;;;;;;4886455;29;20300;-70
2022/12/01 12:01:49;;;;;;;;;;;6.50;99.90;;;;;;4885295;29;19931;-68
2022/12/01 12:04:22;;;;;;;;;;;6.50;99.90;;;;;;4882141;29;19928;-70
2022/12/01 12:06:52;;;;;;;;;;;6.50;99.90;;;;;;4887468;29;19935;-70
2022/12/01 12:09:27;;;;;;;;;;;6.50;99.90;;;;;;4883092;29;19935;-69
2022/12/01 12:12:07;;;;;;;;;;;6.50;99.90;;;;;;4874599;29;19955;-70
2022/12/01 12:14:38;;;;;;;;;;;6.60;99.90;;;;;;4882933;29;19928;-70
2022/12/01 12:17:22;;;;;;;;;;;6.50;99.90;;;;;;4890086;29;19932;-70
2022/12/01 12:20:00;;;;;;;;;;;6.70;99.90;;;;;;4887656;29;19928;-70
2022/12/01 12:22:37;;;;;;;;;;;6.70;99.90;;;;;;4874662;29;19928;-70
2022/12/01 12:25:14;;;;;;;;;;;6.70;99.90;;;;;;4880594;29;19932;-70
2022/12/01 12:27:45;;;;;;;;;;;6.70;99.90;;;;;;4877890;29;19964;-70
2022/12/01 12:30:23;;;;;;;;;;;6.70;99.90;;;;;;4882259;29;19939;-70
2022/12/01 12:33:10;;;;;;;;;;;6.60;99.90;;;;;;4885634;29;20387;-68
2022/12/01 12:35:39;;;;;;;;;;;6.60;99.90;;;;;;4886778;29;19935;-69
2022/12/01 12:38:20;;;;;;;;;;;6.60;99.90;;;;;;4881185;29;20352;-70
2022/12/01 12:40:54;;;;;;;;;;;6.50;99.90;;;;;;4884283;29;19975;-70
2022/12/01 12:43:22;;;;;;;;;;;6.60;99.90;;;;;;4887867;29;19928;-70
2022/12/01 12:45:54;;;;;;;;;;;6.60;99.90;;;;;;4883868;29;20387;-70
2022/12/01 12:48:26;;;;;;;;;;;6.60;99.90;;;;;;4881426;29;19934;-70
2022/12/01 12:50:57;;;;;;;;;;;6.50;99.90;;;;;;4887931;29;19935;-69
2022/12/01 12:53:25;;;;;;;;;;;6.60;99.90;;;;;;4880667;29;19959;-70
2022/12/01 12:55:57;;;;;;;;;;;6.50;99.90;;;;;;4891600;29;19928;-70
2022/12/01 12:58:26;;;;;;;;;;;6.50;99.90;;;;;;4875899;29;19939;-70
2022/12/01 13:00:56;;;;;;;;;;;6.50;99.90;;;;;;4889238;29;19971;-69
2022/12/01 13:03:24;;;;;;;;;;;6.50;99.90;;;;;;4880164;29;19931;-70
2022/12/01 13:05:54;;;;;;;;;;;6.50;99.90;;;;;;4886025;29;20430;-71
2022/12/01 13:08:23;;;;;;;;;;;6.50;99.90;;;;;;4880381;29;19935;-69
2022/12/01 13:10:52;;;;;;;;;;;6.50;99.90;;;;;;4879412;29;19928;-70
2022/12/01 13:13:32;;;;;;;;;;;6.60;99.90;;;;;;4877346;29;19928;-70
2022/12/01 13:16:01;;;;;;;;;;;6.60;99.90;;;;;;4882857;29;19938;-70
2022/12/01 13:18:32;;;;;;;;;;;6.60;99.90;;;;;;4889784;29;19928;-70
2022/12/01 13:21:01;;;;;;;;;;;6.60;99.90;;;;;;4884707;29;20386;-69
2022/12/01 13:23:28;;;;;;;;;;;6.60;99.90;;;;;;4886649;29;19927;-68
2022/12/01 13:25:57;;;;;;;;;;;6.70;99.90;;;;;;4883980;29;19935;-68
2022/12/01 13:28:27;;;;;;;;;;;6.70;99.90;;;;;;4880950;29;19932;-68
2022/12/01 13:30:58;;;;;;;;;;;6.70;99.90;;;;;;4873148;29;20364;-68
2022/12/01 13:33:25;;;;;;;;;;;6.70;99.90;;;;;;4880207;29;19932;-68
2022/12/01 13:35:53;;;;;;;;;;;6.70;99.90;;;;;;4885401;29;19928;-69
2022/12/01 13:38:23;;;;;;;;;;;6.70;99.90;;;;;;4879736;29;19927;-67
2022/12/01 13:41:09;;;;;;;;;;;6.70;99.90;;;;;;4879061;29;20387;-69
2022/12/01 13:43:37;;;;;;;;;;;6.60;99.90;;;;;;4889458;29;19935;-69
2022/12/01 13:46:04;;;;;;;;;;;6.70;99.90;;;;;;4879173;29;19932;-69
2022/12/01 13:48:46;;;;;;;;;;;6.60;99.90;;;;;;4886489;29;19988;-69
2022/12/01 13:51:13;;;;;;;;;;;6.60;99.90;;;;;;4878474;29;19927;-69
2022/12/01 13:53:52;;;;;;;;;;;6.60;99.90;;;;;;4879893;29;19987;-70
2022/12/01 13:56:26;;;;;;;;;;;6.60;99.90;;;;;;4881904;29;19931;-69
2022/12/01 13:58:55;;;;;;;;;;;6.60;99.90;;;;;;4891161;29;19935;-69
2022/12/01 14:01:40;;;;;;;;;;;6.60;99.90;;;;;;4885507;29;20003;-69
2022/12/01 14:04:21;;;;;;;;;;;6.60;99.90;;;;;;4875935;29;20351;-70
2022/12/01 14:06:49;;;;;;;;;;;6.60;99.90;;;;;;4900427;29;20308;-69
2022/12/01 14:09:21;;;;;;;;;;;6.60;99.90;;;;;;4875115;29;19928;-69
2022/12/01 14:11:56;;;;;;;;;;;6.60;99.90;;;;;;4878957;29;19935;-70
2022/12/01 14:14:25;;;;;;;;;;;6.60;99.90;;;;;;4877009;29;19932;-69
2022/12/01 14:16:53;;;;;;;;;;;6.50;99.90;;;;;;4886496;29;19934;-69
2022/12/01 14:19:27;;;;;;;;;;;6.50;99.90;;;;;;4880004;29;19928;-70
2022/12/01 14:21:53;;;;;;;;;;;6.40;99.90;;;;;;4872326;29;19935;-70
2022/12/01 14:24:22;;;;;;;;;;;6.40;99.90;;;;;;4874147;29;19986;-69
2022/12/01 14:26:49;;;;;;;;;;;6.50;99.90;;;;;;4884551;29;19979;-68
2022/12/01 14:29:33;;;;;;;;;;;6.50;99.90;;;;;;4880362;29;19999;-70
2022/12/01 14:32:18;;;;;;;;;;;6.50;99.90;;;;;;4883831;29;19954;-69
2022/12/01 14:34:45;;;;;;;;;;;6.50;99.90;;;;;;4879807;29;20025;-70
2022/12/01 14:37:14;;;;;;;;;;;6.40;99.90;;;;;;4882349;29;20017;-69
2022/12/01 14:39:43;;;;;;;;;;;6.40;99.90;;;;;;4881712;29;19928;-68
2022/12/01 14:44:02;;;;;;;;;;;6.40;99.90;;;;;;4883215;29;19927;-69
2022/12/01 14:45:02;;;;;;;;;;;6.40;99.90;;;;;;4883432;29;19934;-69
2022/12/01 14:47:37;;;;;;;;;;;6.40;99.90;;;;;;4879421;29;19928;-69
2022/12/01 14:50:08;;;;;;;;;;;6.40;99.90;;;;;;4877954;29;19928;-69
2022/12/01 14:52:37;;;;;;;;;;;6.40;99.90;;;;;;4884797;29;19927;-70
2022/12/01 14:55:05;;;;;;;;;;;6.40;99.90;;;;;;4879050;29;19935;-69
2022/12/01 14:57:33;;;;;;;;;;;6.30;99.90;;;;;;4886021;29;19935;-69
2022/12/01 15:00:06;;;;;;;;;;;6.30;99.90;;;;;;4885940;29;20387;-69
2022/12/01 15:02:33;;;;;;;;;;;6.30;99.90;;;;;;4880526;29;19935;-70
2022/12/01 15:05:06;;;;;;;;;;;6.30;99.90;;;;;;4884504;29;19932;-69
2022/12/01 15:07:36;;;;;;;;;;;6.30;99.90;;;;;;4878545;29;19935;-70
2022/12/01 15:10:03;;;;;;;;;;;6.30;99.90;;;;;;4877910;29;19928;-70
2022/12/01 15:12:30;;;;;;;;;;;6.30;99.90;;;;;;4879616;29;19927;-69
2022/12/01 15:14:57;;;;;;;;;;;6.20;99.90;;;;;;4877336;29;20379;-69
2022/12/01 15:17:30;;;;;;;;;;;6.30;99.90;;;;;;4881951;29;19989;-69
2022/12/01 15:19:57;;;;;;;;;;;6.30;99.90;;;;;;4881315;29;19958;-66
2022/12/01 15:22:28;;;;;;;;;;;6.30;99.90;;;;;;4874563;29;20344;-67
2022/12/01 15:24:55;;;;;;;;;;;6.20;99.90;;;;;;4877543;29;19935;-68
2022/12/01 15:27:24;;;;;;;;;;;6.20;99.90;;;;;;4874073;29;19935;-67
2022/12/01 15:29:51;;;;;;;;;;;6.10;99.90;;;;;;4879513;29;19928;-67
2022/12/01 15:32:19;;;;;;;;;;;6.10;99.90;;;;;;4869138;29;20026;-68
2022/12/01 15:34:48;;;;;;;;;;;6.10;99.90;;;;;;4856474;29;19940;-67
2022/12/01 15:37:16;;;;;;;;;;;6.10;99.90;;;;;;4869315;29;19928;-65
2022/12/01 15:39:44;;;;;;;;;;;6.10;99.90;;;;;;4872577;29;19932;-69
2022/12/01 15:42:19;;;;;;;;;;;6.10;99.90;;;;;;4877715;29;19927;-68
2022/12/01 15:44:56;;;;;;;;;;;6.10;99.90;;;;;;4896677;29;19935;-70
2022/12/01 15:47:29;;;;;;;;;;;6.10;99.90;;;;;;4875759;29;19955;-70
2022/12/01 15:49:58;;;;;;;;;;;6.10;99.90;;;;;;4873549;29;20348;-70
2022/12/01 15:52:24;;;;;;;;;;;6.00;99.90;;;;;;4874050;29;19928;-74
2022/12/01 15:54:51;;;;;;;;;;;6.00;99.90;;;;;;4889476;29;19928;-73
2022/12/01 15:57:19;;;;;;;;;;;6.00;99.90;;;;;;4872567;29;19932;-69
2022/12/01 15:59:50;;;;;;;;;;;6.10;99.90;;;;;;4879924;29;19932;-69
2022/12/01 16:02:22;;;;;;;;;;;6.10;99.90;;;;;;4877349;29;20300;-71
2022/12/01 16:04:59;;;;;;;;;;;6.10;99.90;;;;;;4869590;29;19936;-72
2022/12/01 16:07:31;;;;;;;;;;;6.00;99.90;;;;;;4882708;29;19974;-70
2022/12/01 16:09:59;;;;;;;;;;;6.00;99.90;;;;;;4877459;29;20341;-70
2022/12/01 16:12:27;;;;;;;;;;;6.00;99.90;;;;;;4884001;29;19939;-74
2022/12/01 16:14:55;;;;;;;;;;;6.00;99.90;;;;;;4870918;29;19984;-70
2022/12/01 16:17:22;;;;;;;;;;;6.20;99.90;;;;;;4881991;29;19939;-70
2022/12/01 16:20:09;;;;;;;;;;;6.30;99.90;;;;;;4871836;29;19932;-69
2022/12/01 16:22:38;;;;;;;;;;;6.30;99.90;;;;;;4872150;29;19935;-71
2022/12/01 16:25:05;;;;;;;;;;;6.20;99.90;;;;;;4886174;29;19928;-72
2022/12/01 16:27:32;;;;;;;;;;;6.10;99.90;;;;;;4879693;29;19936;-69
2022/12/01 16:30:00;;;;;;;;;;;6.10;99.90;;;;;;4877066;29;19936;-71
2022/12/01 16:32:31;;;;;;;;;;;6.10;99.90;;;;;;4869860;29;19971;-71
2022/12/01 16:34:58;;;;;;;;;;;6.10;99.90;;;;;;4868435;29;19928;-70
2022/12/01 16:37:25;;;;;;;;;;;6.00;99.90;;;;;;4870308;29;19977;-70
2022/12/01 16:39:54;;;;;;;;;;;6.00;99.90;;;;;;4868303;29;19936;-71
2022/12/01 16:42:21;;;;;;;;;;;6.00;99.90;;;;;;4876049;29;19931;-70
2022/12/01 16:44:48;;;;;;;;;;;5.90;99.90;;;;;;4892107;29;19932;-71
2022/12/01 16:47:16;;;;;;;;;;;5.90;99.90;;;;;;4873889;29;19935;-72
2022/12/01 16:49:43;;;;;;;;;;;5.90;99.90;;;;;;4872383;29;20395;-71
2022/12/01 16:52:10;;;;;;;;;;;5.90;99.90;;;;;;4872848;29;19928;-70
2022/12/01 16:54:37;;;;;;;;;;;5.80;99.90;;;;;;4880661;29;19951;-72
2022/12/01 16:57:05;;;;;;;;;;;5.80;99.90;;;;;;4878169;29;19932;-72
2022/12/01 16:59:32;;;;;;;;;;;5.80;99.90;;;;;;4879123;29;19928;-71
2022/12/01 17:01:59;;;;;;;;;;;5.80;99.90;;;;;;4892950;29;20300;-71
2022/12/01 17:04:27;;;;;;;;;;;5.80;99.90;;;;;;4884329;29;19932;-71
2022/12/01 17:06:53;;;;;;;;;;;5.80;99.90;;;;;;4873714;29;19928;-73
2022/12/01 17:09:21;;;;;;;;;;;5.80;99.90;;;;;;4880106;29;19928;-72
2022/12/01 17:11:48;;;;;;;;;;;5.80;99.90;;;;;;4885323;29;20323;-73
2022/12/01 17:14:16;;;;;;;;;;;5.80;99.90;;;;;;4889197;29;20065;-72
2022/12/01 17:16:43;;;;;;;;;;;5.70;99.90;;;;;;4884628;29;19932;-71
2022/12/01 17:19:11;;;;;;;;;;;5.70;99.90;;;;;;4883399;29;19928;-72
2022/12/01 17:21:39;;;;;;;;;;;5.80;99.90;;;;;;4869003;29;20019;-69
2022/12/01 17:24:06;;;;;;;;;;;5.80;99.90;;;;;;4859028;29;19935;-71
2022/12/01 17:26:33;;;;;;;;;;;5.70;99.90;;;;;;4858250;29;20085;-71
2022/12/01 17:29:00;;;;;;;;;;;5.70;99.90;;;;;;4861249;29;19939;-71
2022/12/01 17:31:28;;;;;;;;;;;5.80;99.90;;;;;;4871891;29;19928;-71
2022/12/01 17:33:55;;;;;;;;;;;5.80;99.90;;;;;;4887255;29;19928;-70
2022/12/01 17:36:22;;;;;;;;;;;5.80;99.90;;;;;;4887814;29;20387;-72
2022/12/01 17:38:49;;;;;;;;;;;5.80;99.90;;;;;;4879613;29;19931;-71
2022/12/01 17:41:16;;;;;;;;;;;5.80;99.90;;;;;;4884366;29;19955;-70
2022/12/01 17:43:43;;;;;;;;;;;5.80;99.90;;;;;;4887508;29;19928;-71
2022/12/01 17:46:11;;;;;;;;;;;5.80;99.90;;;;;;4883401;29;19935;-72
2022/12/01 17:48:40;;;;;;;;;;;5.80;99.90;;;;;;4881912;29;19927;-71
2022/12/01 17:51:07;;;;;;;;;;;5.80;99.90;;;;;;4867269;29;19932;-71
2022/12/01 17:53:34;;;;;;;;;;;5.80;99.90;;;;;;4880366;29;19980;-71
2022/12/01 17:56:01;;;;;;;;;;;5.80;99.90;;;;;;4869092;29;19953;-71
2022/12/01 17:58:29;;;;;;;;;;;5.80;99.90;;;;;;4874977;29;19935;-71
2022/12/01 18:00:56;;;;;;;;;;;5.80;99.90;;;;;;4872742;29;19929;-71
2022/12/01 18:03:23;;;;;;;;;;;5.80;99.90;;;;;;4880095;29;20407;-71
2022/12/01 18:05:58;;;;;;;;;;;5.80;99.90;;;;;;4866179;29;19940;-71
2022/12/01 18:08:28;;;;;;;;;;;5.80;99.90;;;;;;4878260;29;19996;-72
2022/12/01 18:11:00;;;;;;;;;;;5.80;99.90;;;;;;4873172;29;19928;-71
2022/12/01 18:13:28;;;;;;;;;;;5.80;99.90;;;;;;4873190;29;19928;-72
2022/12/01 18:15:55;;;;;;;;;;;5.70;99.90;;;;;;4877202;29;19934;-71
2022/12/01 18:18:21;;;;;;;;;;;5.70;99.90;;;;;;4872589;29;19931;-71
2022/12/01 18:20:48;;;;;;;;;;;5.70;99.90;;;;;;4869514;29;19928;-71
2022/12/01 18:23:19;;;;;;;;;;;5.70;99.90;;;;;;4863496;29;21361;-70
2022/12/01 18:25:45;;;;;;;;;;;5.70;99.90;;;;;;4882596;29;20459;-71
2022/12/01 18:28:12;;;;;;;;;;;5.70;99.90;;;;;;4871887;29;20329;-71
2022/12/01 18:30:39;;;;;;;;;;;5.70;99.90;;;;;;4877298;29;19939;-71
2022/12/01 18:33:09;;;;;;;;;;;5.60;99.90;;;;;;4865821;29;19928;-71
2022/12/01 18:35:41;;;;;;;;;;;5.60;99.90;;;;;;4882699;29;19976;-71
2022/12/01 18:38:08;;;;;;;;;;;5.60;99.90;;;;;;4865094;29;20384;-71
2022/12/01 18:40:37;;;;;;;;;;;5.60;99.90;;;;;;4864070;29;19940;-71
2022/12/01 18:43:04;;;;;;;;;;;5.60;99.90;;;;;;4891287;29;19928;-71